Time;durP1;ratioP1;P1;durP2;ratioP2;P2;SDS_P1;SDS_P2;PMS_P1;PMS_P2;Temp;Humidity;BMP_temperature;BMP_pressure;BME280_temperature;BME280_humidity;BME280_pressure;Samples;Min_cycle;Max_cycle;Signal;HPM_P1;HPM_P2
2021/06/11 00:01:19;;;;;;;9.50;8.40;;;17.00;99.90;;;;;;5073603;28;20205;-56
2021/06/11 00:03:45;;;;;;;11.03;8.77;;;17.00;99.90;;;;;;5073225;28;20641;-56
2021/06/11 00:06:11;;;;;;;12.03;8.93;;;17.00;99.90;;;;;;5073216;28;20316;-56
2021/06/11 00:08:37;;;;;;;9.70;8.70;;;16.90;99.90;;;;;;5072850;28;20209;-60
2021/06/11 00:11:03;;;;;;;10.33;8.30;;;16.90;99.90;;;;;;5073007;28;20277;-59
2021/06/11 00:13:30;;;;;;;10.37;9.37;;;16.90;99.90;;;;;;5072659;28;20224;-58
2021/06/11 00:15:57;;;;;;;9.67;8.63;;;16.90;99.90;;;;;;5072813;28;20209;-57
2021/06/11 00:18:23;;;;;;;9.90;8.80;;;16.90;99.90;;;;;;5072630;28;20217;-56
2021/06/11 00:20:52;;;;;;;9.90;9.00;;;16.90;99.90;;;;;;5072580;28;20215;-58
2021/06/11 00:23:18;;;;;;;10.33;9.33;;;16.90;99.90;;;;;;5072315;28;20220;-58
2021/06/11 00:25:44;;;;;;;10.13;9.10;;;16.90;99.90;;;;;;5072349;28;20221;-56
2021/06/11 00:28:11;;;;;;;10.53;9.03;;;16.90;99.90;;;;;;5072577;28;20208;-56
2021/06/11 00:30:39;;;;;;;10.73;8.57;;;16.90;99.90;;;;;;5072445;28;20664;-56
2021/06/11 00:33:08;;;;;;;13.90;9.33;;;16.80;99.90;;;;;;5072408;28;20236;-56
2021/06/11 00:35:35;;;;;;;10.98;8.85;;;16.80;99.90;;;;;;5072063;28;20197;-57
2021/06/11 00:38:02;;;;;;;10.10;8.87;;;16.80;99.90;;;;;;5072122;28;20207;-56
2021/06/11 00:40:28;;;;;;;9.30;8.50;;;16.70;99.90;;;;;;5072380;28;20205;-58
2021/06/11 00:42:54;;;;;;;8.80;8.00;;;16.70;99.90;;;;;;5071980;28;20263;-56
2021/06/11 00:45:21;;;;;;;13.20;8.73;;;16.60;99.90;;;;;;5072027;28;20396;-56
2021/06/11 00:47:48;;;;;;;9.60;8.67;;;16.60;99.90;;;;;;5071856;28;20669;-57
2021/06/11 00:50:20;;;;;;;9.40;8.50;;;16.50;99.90;;;;;;5072356;28;20200;-57
2021/06/11 00:52:46;;;;;;;9.70;7.95;;;16.50;99.90;;;;;;5073483;28;20244;-57
2021/06/11 00:55:12;;;;;;;9.90;8.03;;;16.40;99.90;;;;;;5072666;28;20319;-59
2021/06/11 00:57:39;;;;;;;8.93;7.87;;;16.40;99.90;;;;;;5071828;28;20256;-60
2021/06/11 01:00:06;;;;;;;8.67;7.77;;;16.40;99.90;;;;;;5071676;28;20201;-56
2021/06/11 01:02:33;;;;;;;9.37;7.67;;;16.40;99.90;;;;;;5071543;28;20724;-57
2021/06/11 01:05:00;;;;;;;9.17;8.27;;;16.30;99.90;;;;;;5071317;28;20225;-57
2021/06/11 01:07:28;;;;;;;10.57;8.07;;;16.30;99.90;;;;;;5072615;28;20212;-56
2021/06/11 01:09:56;;;;;;;9.87;7.73;;;16.20;99.90;;;;;;5071825;28;20746;-56
2021/06/11 01:12:22;;;;;;;9.37;7.83;;;16.20;99.90;;;;;;5071645;28;20233;-56
2021/06/11 01:14:49;;;;;;;11.43;8.33;;;16.20;99.90;;;;;;5071339;28;20212;-56
2021/06/11 01:17:15;;;;;;;10.10;7.80;;;16.20;99.90;;;;;;5071373;28;20230;-58
2021/06/11 01:19:44;;;;;;;9.13;8.20;;;16.10;99.90;;;;;;5071498;28;20209;-57
2021/06/11 01:22:16;;;;;;;10.23;8.10;;;16.10;99.90;;;;;;5071381;28;20234;-58
2021/06/11 01:24:57;;;;;;;8.77;7.97;;;16.10;99.90;;;;;;5071123;28;20224;-56
2021/06/11 01:27:24;;;;;;;8.80;7.90;;;16.10;99.90;;;;;;5071194;28;20209;-58
2021/06/11 01:29:53;;;;;;;11.10;8.40;;;16.10;99.90;;;;;;5071220;28;20262;-57
2021/06/11 01:32:20;;;;;;;11.03;8.10;;;16.10;99.90;;;;;;5071258;28;20267;-56
2021/06/11 01:34:51;;;;;;;10.30;7.93;;;16.00;99.90;;;;;;5071133;28;20204;-56
2021/06/11 01:37:19;;;;;;;9.53;8.43;;;16.00;99.90;;;;;;5071424;28;20251;-60
2021/06/11 01:39:50;;;;;;;11.90;7.90;;;16.00;99.90;;;;;;5071206;28;20211;-56
2021/06/11 01:42:16;;;;;;;9.47;7.90;;;16.00;99.90;;;;;;5071377;28;20703;-56
2021/06/11 01:44:46;;;;;;;9.07;7.33;;;16.00;99.90;;;;;;5071136;28;20224;-56
2021/06/11 01:47:13;;;;;;;9.17;8.27;;;15.90;99.90;;;;;;5071151;28;20227;-56
2021/06/11 01:49:43;;;;;;;8.97;8.07;;;15.90;99.90;;;;;;5070721;28;20598;-57
2021/06/11 01:54:38;;;;;;;9.17;8.27;;;15.90;99.90;;;;;;5093434;22;20327;-58
2021/06/11 01:57:06;;;;;;;9.23;8.33;;;15.90;99.90;;;;;;5071496;28;20217;-58
2021/06/11 01:59:33;;;;;;;9.13;8.30;;;15.90;99.90;;;;;;5071166;28;20205;-58
2021/06/11 02:02:01;;;;;;;9.03;8.10;;;15.90;99.90;;;;;;5071357;28;20571;-58
2021/06/11 02:04:28;;;;;;;9.10;8.20;;;15.80;99.90;;;;;;5071153;28;20688;-58
2021/06/11 02:06:55;;;;;;;9.63;8.63;;;15.80;99.90;;;;;;5071270;28;20212;-58
2021/06/11 02:09:22;;;;;;;10.07;8.33;;;15.80;99.90;;;;;;5070895;28;20290;-58
2021/06/11 02:11:49;;;;;;;9.00;8.10;;;15.80;99.90;;;;;;5071427;28;20677;-58
2021/06/11 02:14:17;;;;;;;9.70;7.97;;;15.80;99.90;;;;;;5071503;28;20228;-57
2021/06/11 02:16:45;;;;;;;9.90;8.40;;;15.80;99.90;;;;;;5071719;28;20664;-57
2021/06/11 02:19:13;;;;;;;10.37;7.80;;;15.70;99.90;;;;;;5075631;28;20212;-58
2021/06/11 02:21:41;;;;;;;9.27;8.30;;;15.70;99.90;;;;;;5076430;28;20683;-58
2021/06/11 02:24:08;;;;;;;9.60;8.67;;;15.70;99.90;;;;;;5075332;28;20236;-58
2021/06/11 02:26:35;;;;;;;9.97;8.97;;;15.70;99.90;;;;;;5076046;28;20695;-60
2021/06/11 02:29:01;;;;;;;9.70;8.20;;;15.70;99.90;;;;;;5075576;28;20629;-58
2021/06/11 02:31:28;;;;;;;9.53;8.63;;;15.80;99.90;;;;;;5075282;28;20208;-58
2021/06/11 02:33:54;;;;;;;9.73;8.37;;;15.70;99.90;;;;;;5074720;28;20225;-58
2021/06/11 02:36:22;;;;;;;9.87;8.63;;;15.70;99.90;;;;;;5074676;28;20204;-58
2021/06/11 02:38:48;;;;;;;9.47;8.20;;;15.70;99.90;;;;;;5074777;28;20212;-57
2021/06/11 02:41:20;;;;;;;9.20;8.30;;;15.70;99.90;;;;;;5074896;28;20204;-58
2021/06/11 02:43:48;;;;;;;9.23;8.23;;;15.70;99.90;;;;;;5074483;28;20228;-58
2021/06/11 02:46:18;;;;;;;10.60;8.17;;;15.80;99.90;;;;;;5074778;28;20201;-58
2021/06/11 02:48:49;;;;;;;10.87;9.77;;;15.80;99.90;;;;;;5074859;28;20351;-59
2021/06/11 02:51:23;;;;;;;8.90;8.03;;;15.80;99.90;;;;;;5074773;28;20687;-58
2021/06/11 02:53:50;;;;;;;9.57;8.17;;;15.80;99.90;;;;;;5074277;28;20233;-59
2021/06/11 02:56:19;;;;;;;9.30;8.27;;;15.80;99.90;;;;;;5074936;28;20254;-58
2021/06/11 02:58:49;;;;;;;9.10;7.73;;;15.70;99.90;;;;;;5074563;28;20260;-58
2021/06/11 03:01:16;;;;;;;11.67;8.23;;;15.60;99.90;;;;;;5074472;28;20216;-58
2021/06/11 03:03:44;;;;;;;8.87;7.97;;;15.50;99.90;;;;;;5074208;28;20534;-58
2021/06/11 03:06:12;;;;;;;8.73;7.93;;;15.50;99.90;;;;;;5074748;28;20227;-59
2021/06/11 03:08:43;;;;;;;7.97;7.17;;;15.50;99.90;;;;;;5074429;28;20212;-59
2021/06/11 03:11:13;;;;;;;9.57;8.63;;;15.50;99.90;;;;;;5074587;28;20609;-59
2021/06/11 03:13:41;;;;;;;8.73;7.87;;;15.50;99.90;;;;;;5074109;28;20311;-59
2021/06/11 03:16:07;;;;;;;9.43;8.53;;;15.50;99.90;;;;;;5073874;28;20211;-59
2021/06/11 03:18:37;;;;;;;8.63;7.83;;;15.50;99.90;;;;;;5074085;28;20220;-58
2021/06/11 03:21:10;;;;;;;8.93;8.03;;;15.50;99.90;;;;;;5074449;28;20208;-59
2021/06/11 03:23:43;;;;;;;9.07;7.97;;;15.50;99.90;;;;;;5074013;28;20263;-59
2021/06/11 03:26:13;;;;;;;9.63;8.73;;;15.50;99.90;;;;;;5074219;28;20229;-59
2021/06/11 03:28:45;;;;;;;9.50;8.63;;;15.60;99.90;;;;;;5073751;28;20209;-58
2021/06/11 03:31:15;;;;;;;9.77;8.77;;;15.60;99.90;;;;;;5074211;28;20204;-58
2021/06/11 03:33:44;;;;;;;9.50;8.30;;;15.60;99.90;;;;;;5073834;28;20309;-58
2021/06/11 03:36:16;;;;;;;9.90;8.90;;;15.60;99.90;;;;;;5073873;28;20197;-59
2021/06/11 03:38:47;;;;;;;9.83;8.90;;;15.70;99.90;;;;;;5074072;28;20209;-59
2021/06/11 03:41:14;;;;;;;8.50;7.70;;;15.70;99.90;;;;;;5073819;28;20205;-59
2021/06/11 03:43:41;;;;;;;12.83;8.20;;;15.80;99.90;;;;;;5073609;28;20220;-59
2021/06/11 03:46:08;;;;;;;8.83;8.00;;;15.90;99.90;;;;;;5073635;28;20224;-58
2021/06/11 03:48:35;;;;;;;8.27;7.47;;;16.00;99.90;;;;;;5073562;28;20205;-59
2021/06/11 03:51:03;;;;;;;8.37;7.20;;;15.90;99.90;;;;;;5074195;28;20583;-58
2021/06/11 03:53:30;;;;;;;10.17;7.33;;;16.00;99.90;;;;;;5074028;28;20233;-59
2021/06/11 03:56:02;;;;;;;9.10;8.30;;;16.00;99.90;;;;;;5073999;28;20197;-59
2021/06/11 03:58:32;;;;;;;12.17;11.07;;;16.00;99.90;;;;;;5073956;28;20213;-59
2021/06/11 04:01:01;;;;;;;8.37;7.67;;;16.10;99.90;;;;;;5074173;28;20227;-58
2021/06/11 04:03:27;;;;;;;10.23;9.03;;;16.20;99.90;;;;;;5073735;28;20225;-58
2021/06/11 04:06:01;;;;;;;14.50;13.13;;;16.30;99.90;;;;;;5073835;28;20259;-59
2021/06/11 04:08:32;;;;;;;10.43;9.33;;;16.30;99.90;;;;;;5073368;28;20208;-58
2021/06/11 04:11:00;;;;;;;10.23;8.67;;;16.30;99.90;;;;;;5073669;28;20240;-59
2021/06/11 04:13:41;;;;;;;8.60;7.77;;;16.40;99.90;;;;;;5073196;28;20220;-58
2021/06/11 04:16:13;;;;;;;8.60;7.80;;;16.40;99.90;;;;;;5073149;28;20204;-59
2021/06/11 04:18:42;;;;;;;7.70;7.00;;;16.40;99.90;;;;;;5073001;28;20315;-59
2021/06/11 04:21:11;;;;;;;7.77;7.07;;;16.40;99.90;;;;;;5073156;28;20746;-59
2021/06/11 04:23:41;;;;;;;8.40;7.50;;;16.40;99.90;;;;;;5073238;28;20229;-58
2021/06/11 04:26:09;;;;;;;8.70;7.20;;;16.40;99.90;;;;;;5073187;28;20247;-58
2021/06/11 04:28:38;;;;;;;10.67;8.50;;;16.40;99.90;;;;;;5073052;28;20707;-58
2021/06/11 04:31:05;;;;;;;8.67;7.87;;;16.50;99.90;;;;;;5073078;28;20208;-59
2021/06/11 04:33:31;;;;;;;7.93;7.23;;;16.50;99.90;;;;;;5072968;28;20228;-59
2021/06/11 04:35:58;;;;;;;7.33;6.73;;;16.60;99.90;;;;;;5072957;28;20197;-59
2021/06/11 04:38:25;;;;;;;7.50;6.80;;;16.60;99.90;;;;;;5072726;28;20207;-59
2021/06/11 04:40:52;;;;;;;7.60;6.90;;;16.60;99.90;;;;;;5072878;28;20292;-59
2021/06/11 04:43:23;;;;;;;8.83;7.37;;;16.70;99.90;;;;;;5072465;28;20282;-59
2021/06/11 04:45:49;;;;;;;7.90;7.10;;;16.80;99.90;;;;;;5072943;28;20233;-59
2021/06/11 04:48:15;;;;;;;8.50;6.83;;;17.30;99.90;;;;;;5072665;28;20258;-59
2021/06/11 04:50:42;;;;;;;6.67;6.07;;;18.10;99.90;;;;;;5072400;28;20661;-59
2021/06/11 04:53:08;;;;;;;7.05;6.38;;;18.90;99.90;;;;;;5072408;28;20658;-60
2021/06/11 04:55:34;;;;;;;6.68;5.88;;;19.50;99.90;;;;;;5072205;28;20205;-59
2021/06/11 04:58:00;;;;;;;7.10;6.32;;;20.20;99.90;;;;;;5072218;28;20204;-59
2021/06/11 05:00:28;;;;;;;7.65;6.70;;;20.10;99.90;;;;;;5072433;28;20208;-59
2021/06/11 05:02:54;;;;;;;10.55;6.65;;;19.70;99.90;;;;;;5072112;28;20716;-59
2021/06/11 05:05:20;;;;;;;7.07;5.85;;;19.50;99.90;;;;;;5072035;28;20252;-59
2021/06/11 05:07:46;;;;;;;6.55;5.95;;;20.00;99.90;;;;;;5072456;28;20258;-59
2021/06/11 05:10:14;;;;;;;6.47;5.70;;;20.70;99.90;;;;;;5071953;28;20295;-59
2021/06/11 05:12:40;;;;;;;6.68;5.75;;;21.40;99.90;;;;;;5071928;28;20499;-59
2021/06/11 05:15:08;;;;;;;6.85;5.63;;;22.30;99.90;;;;;;5072015;28;20263;-59
2021/06/11 05:17:35;;;;;;;7.07;5.72;;;22.70;99.90;;;;;;5073240;28;20212;-59
2021/06/11 05:20:01;;;;;;;6.30;5.70;;;22.70;99.90;;;;;;5072826;28;20208;-59
2021/06/11 05:22:27;;;;;;;12.05;10.60;;;23.20;99.90;;;;;;5072042;28;20562;-59
2021/06/11 05:24:54;;;;;;;5.97;5.32;;;23.80;99.90;;;;;;5071968;28;20217;-59
2021/06/11 05:27:20;;;;;;;5.45;4.95;;;24.50;99.90;;;;;;5071678;28;20205;-59
2021/06/11 05:29:46;;;;;;;5.35;4.68;;;25.10;99.90;;;;;;5071976;28;20597;-59
2021/06/11 05:32:12;;;;;;;6.22;5.05;;;25.70;99.90;;;;;;5071980;28;20204;-60
2021/06/11 05:34:40;;;;;;;5.30;4.60;;;25.80;99.90;;;;;;5071510;28;20200;-60
2021/06/11 05:37:06;;;;;;;5.13;4.72;;;25.40;99.90;;;;;;5071693;28;20205;-60
2021/06/11 05:39:32;;;;;;;6.53;5.93;;;25.40;99.90;;;;;;5071502;28;20227;-60
2021/06/11 05:41:59;;;;;;;4.85;4.45;;;26.00;99.90;;;;;;5071338;28;20621;-60
2021/06/11 05:44:25;;;;;;;6.40;5.75;;;26.60;99.90;;;;;;5071273;28;20225;-60
2021/06/11 05:46:51;;;;;;;8.13;4.60;;;27.30;99.90;;;;;;5071451;28;20232;-60
2021/06/11 05:49:18;;;;;;;5.85;4.50;;;28.30;99.90;;;;;;5071876;28;20246;-60
2021/06/11 05:51:45;;;;;;;4.97;4.30;;;29.40;97.40;;;;;;5070869;28;20231;-60
2021/06/11 05:54:11;;;;;;;5.75;4.20;;;30.10;95.00;;;;;;5071359;28;20232;-59
2021/06/11 05:56:38;;;;;;;5.43;4.15;;;30.70;93.30;;;;;;5071589;28;20209;-60
2021/06/11 05:59:05;;;;;;;4.65;4.18;;;31.40;91.50;;;;;;5071750;28;20200;-60
2021/06/11 06:01:31;;;;;;;4.82;3.85;;;31.70;88.30;;;;;;5071401;28;20255;-61
2021/06/11 06:03:57;;;;;;;4.50;4.03;;;32.00;86.10;;;;;;5071170;28;20224;-60
2021/06/11 06:06:23;;;;;;;4.43;4.03;;;32.30;84.00;;;;;;5071244;28;20221;-61
2021/06/11 06:08:51;;;;;;;5.47;4.80;;;32.80;82.20;;;;;;5071453;28;20207;-60
2021/06/11 06:11:17;;;;;;;5.00;4.53;;;33.40;78.70;;;;;;5071405;28;20559;-60
2021/06/11 06:13:43;;;;;;;4.75;4.10;;;34.00;76.60;;;;;;5072021;28;20285;-60
2021/06/11 06:16:09;;;;;;;4.13;3.65;;;34.90;72.80;;;;;;5071277;28;20608;-60
2021/06/11 06:18:36;;;;;;;4.57;3.55;;;35.60;68.20;;;;;;5071086;28;20213;-60
2021/06/11 06:21:02;;;;;;;4.05;3.75;;;35.70;67.50;;;;;;5071557;28;20236;-60
2021/06/11 06:23:28;;;;;;;4.60;4.20;;;35.80;65.30;;;;;;5070778;28;20225;-61
2021/06/11 06:25:56;;;;;;;4.03;3.72;;;36.00;64.30;;;;;;5070863;28;20700;-61
2021/06/11 06:28:22;;;;;;;4.20;3.90;;;36.50;62.10;;;;;;5071214;28;20619;-61
2021/06/11 06:30:48;;;;;;;5.38;4.13;;;36.90;60.50;;;;;;5071160;28;20204;-61
2021/06/11 06:33:14;;;;;;;4.88;4.10;;;37.30;59.20;;;;;;5070748;28;20224;-60
2021/06/11 06:35:40;;;;;;;3.55;3.25;;;37.70;58.40;;;;;;5070965;28;20205;-61
2021/06/11 06:38:08;;;;;;;6.25;3.83;;;38.20;56.40;;;;;;5072253;28;20211;-60
2021/06/11 06:40:35;;;;;;;4.00;3.55;;;38.00;56.50;;;;;;5071703;28;20266;-61
2021/06/11 06:43:03;;;;;;;3.88;3.58;;;38.00;56.20;;;;;;5071062;28;20319;-61
2021/06/11 06:45:29;;;;;;;4.18;3.88;;;38.60;55.20;;;;;;5070739;28;20708;-61
2021/06/11 06:47:56;;;;;;;5.57;4.20;;;38.90;53.30;;;;;;5070629;28;20220;-61
2021/06/11 06:50:22;;;;;;;4.25;3.85;;;39.10;53.10;;;;;;5070663;28;20209;-61
2021/06/11 06:52:53;;;;;;;4.35;3.95;;;39.40;52.30;;;;;;5070522;28;20235;-60
2021/06/11 06:55:19;;;;;;;4.18;3.78;;;38.90;51.90;;;;;;5070737;28;20235;-61
2021/06/11 06:57:45;;;;;;;4.13;3.75;;;36.80;55.40;;;;;;5070881;28;20209;-61
2021/06/11 07:00:14;;;;;;;4.10;3.72;;;35.90;57.00;;;;;;5070589;28;20201;-60
2021/06/11 07:02:41;;;;;;;4.45;3.88;;;36.10;57.30;;;;;;5070172;28;20327;-61
2021/06/11 07:05:09;;;;;;;4.85;4.45;;;37.10;55.70;;;;;;5074281;28;20237;-59
2021/06/11 07:07:35;;;;;;;4.60;4.20;;;37.50;54.40;;;;;;5074345;28;20204;-60
2021/06/11 07:10:01;;;;;;;5.43;4.68;;;37.00;55.50;;;;;;5074189;28;20205;-60
2021/06/11 07:12:27;;;;;;;5.45;4.25;;;36.70;55.80;;;;;;5074359;28;20259;-60
2021/06/11 07:14:54;;;;;;;5.05;4.55;;;36.90;56.40;;;;;;5074329;28;20205;-61
2021/06/11 07:17:21;;;;;;;4.50;4.10;;;38.20;54.40;;;;;;5074426;28;20211;-61
2021/06/11 07:19:48;;;;;;;4.80;4.38;;;39.60;51.70;;;;;;5074010;28;20209;-60
2021/06/11 07:22:14;;;;;;;4.80;4.40;;;40.70;49.70;;;;;;5074173;28;20664;-61
2021/06/11 07:24:40;;;;;;;4.50;4.07;;;41.60;48.80;;;;;;5073694;28;20696;-61
2021/06/11 07:27:07;;;;;;;5.20;4.40;;;42.50;47.30;;;;;;5074131;28;20213;-61
2021/06/11 07:29:35;;;;;;;4.47;4.05;;;42.80;45.30;;;;;;5073738;28;20211;-61
2021/06/11 07:32:03;;;;;;;4.65;4.07;;;43.00;45.00;;;;;;5073776;28;20211;-61
2021/06/11 07:34:31;;;;;;;4.38;3.95;;;42.80;44.50;;;;;;5073656;28;20378;-61
2021/06/11 07:36:57;;;;;;;4.40;4.00;;;41.60;45.60;;;;;;5074185;28;20216;-60
2021/06/11 07:39:23;;;;;;;4.70;4.20;;;39.70;48.80;;;;;;5073647;28;20205;-66
2021/06/11 07:41:54;;;;;;;6.43;4.25;;;39.90;49.00;;;;;;5073626;28;20579;-60
2021/06/11 07:44:20;;;;;;;5.47;4.45;;;40.10;48.20;;;;;;5073065;28;20224;-60
2021/06/11 07:46:46;;;;;;;5.07;4.40;;;39.70;48.20;;;;;;5073088;28;20216;-60
2021/06/11 07:49:14;;;;;;;5.07;4.07;;;39.90;48.30;;;;;;5073183;28;20537;-61
2021/06/11 07:51:42;;;;;;;4.20;3.80;;;41.10;47.20;;;;;;5073423;28;20204;-60
2021/06/11 07:54:08;;;;;;;4.90;3.88;;;42.40;45.30;;;;;;5073587;28;20232;-60
2021/06/11 07:56:34;;;;;;;4.47;4.07;;;43.40;42.90;;;;;;5073463;28;20204;-61
2021/06/11 07:59:01;;;;;;;5.10;4.30;;;44.20;42.20;;;;;;5073042;28;20220;-60
2021/06/11 08:01:27;;;;;;;4.72;4.15;;;44.70;41.00;;;;;;5072954;28;20205;-60
2021/06/11 08:03:53;;;;;;;6.63;4.45;;;45.10;40.40;;;;;;5072824;28;20444;-60
2021/06/11 08:06:19;;;;;;;4.93;4.07;;;45.50;39.30;;;;;;5072988;28;20228;-59
2021/06/11 08:08:47;;;;;;;5.03;4.35;;;45.40;39.00;;;;;;5072931;28;20524;-60
2021/06/11 08:11:13;;;;;;;5.38;4.63;;;44.00;40.80;;;;;;5072912;28;20485;-60
2021/06/11 08:13:39;;;;;;;5.20;4.28;;;43.20;41.90;;;;;;5072573;28;20228;-59
2021/06/11 08:16:06;;;;;;;4.50;3.78;;;43.10;42.20;;;;;;5071964;28;20258;-59
2021/06/11 08:18:33;;;;;;;6.00;4.30;;;43.10;41.80;;;;;;5072798;28;20215;-61
2021/06/11 08:20:59;;;;;;;5.03;4.20;;;42.60;42.60;;;;;;5072934;28;20242;-60
2021/06/11 08:23:26;;;;;;;8.73;5.00;;;42.40;42.80;;;;;;5072947;28;20224;-59
2021/06/11 08:25:53;;;;;;;6.28;5.00;;;43.20;42.30;;;;;;5072736;28;20220;-60
2021/06/11 08:28:19;;;;;;;4.75;4.35;;;44.00;41.20;;;;;;5072631;28;20204;-60
2021/06/11 08:30:45;;;;;;;4.35;4.03;;;44.70;39.20;;;;;;5072898;28;20204;-59
2021/06/11 08:33:12;;;;;;;4.57;4.18;;;44.90;39.30;;;;;;5072610;28;20607;-60
2021/06/11 08:35:38;;;;;;;5.40;4.05;;;44.70;39.70;;;;;;5072614;28;20200;-59
2021/06/11 08:38:05;;;;;;;5.43;4.40;;;44.50;39.30;;;;;;5072521;28;20213;-60
2021/06/11 08:40:31;;;;;;;4.65;4.25;;;44.10;40.20;;;;;;5072378;28;20200;-60
2021/06/11 08:42:59;;;;;;;4.70;4.30;;;44.30;39.80;;;;;;5072011;28;20232;-60
2021/06/11 08:45:25;;;;;;;4.82;4.35;;;44.00;39.00;;;;;;5071908;28;20220;-60
2021/06/11 08:47:54;;;;;;;6.50;4.15;;;43.20;40.20;;;;;;5072304;28;20212;-61
2021/06/11 08:50:23;;;;;;;4.43;4.00;;;42.40;41.10;;;;;;5072563;28;20216;-60
2021/06/11 08:52:50;;;;;;;4.88;4.38;;;41.00;42.30;;;;;;5072231;28;20239;-61
2021/06/11 08:55:16;;;;;;;5.05;4.38;;;39.30;44.10;;;;;;5072105;28;20205;-60
2021/06/11 08:57:43;;;;;;;5.97;5.15;;;37.30;47.30;;;;;;5072055;28;20205;-57
2021/06/11 09:00:13;;;;;;;6.43;5.43;;;35.90;49.40;;;;;;5072138;28;20298;-58
2021/06/11 09:03:10;;;;;;;6.07;4.82;;;34.90;50.50;;;;;;5072227;28;20290;-58
2021/06/11 09:05:38;;;;;;;5.38;4.97;;;34.00;52.40;;;;;;5071790;28;20236;-59
2021/06/11 09:08:15;;;;;;;5.70;4.85;;;33.30;53.80;;;;;;5071692;28;20204;-58
2021/06/11 09:10:42;;;;;;;6.55;5.40;;;32.60;54.90;;;;;;5071751;28;20200;-60
2021/06/11 09:13:08;;;;;;;5.18;4.68;;;32.10;55.50;;;;;;5071859;28;20632;-59
2021/06/11 09:15:35;;;;;;;7.72;5.30;;;31.60;56.10;;;;;;5071737;28;20205;-64
2021/06/11 09:18:02;;;;;;;7.00;5.32;;;31.10;57.30;;;;;;5071166;28;20201;-61
2021/06/11 09:20:31;;;;;;;6.60;4.95;;;30.90;58.00;;;;;;5069505;28;20212;-61
2021/06/11 09:22:59;;;;;;;5.82;5.32;;;30.60;58.80;;;;;;5070803;28;20229;-59
2021/06/11 09:25:32;;;;;;;6.45;4.72;;;30.30;60.60;;;;;;5071438;28;20256;-60
2021/06/11 09:28:00;;;;;;;7.28;5.45;;;30.00;60.40;;;;;;5071326;28;20315;-60
2021/06/11 09:30:33;;;;;;;6.28;5.50;;;29.80;62.50;;;;;;5070387;28;20208;-62
2021/06/11 09:33:03;;;;;;;6.82;5.60;;;29.60;61.90;;;;;;5070623;28;20239;-60
2021/06/11 09:35:38;;;;;;;7.18;6.00;;;29.60;62.50;;;;;;5071369;28;20227;-60
2021/06/11 09:38:11;;;;;;;6.28;5.68;;;29.40;62.90;;;;;;5071619;28;20578;-61
2021/06/11 09:40:37;;;;;;;11.82;5.88;;;29.40;62.60;;;;;;5071341;28;20212;-61
2021/06/11 09:43:04;;;;;;;5.38;4.88;;;29.30;62.80;;;;;;5071236;28;20232;-61
2021/06/11 09:45:31;;;;;;;6.00;5.40;;;29.20;63.20;;;;;;5070847;28;20232;-60
2021/06/11 09:47:57;;;;;;;5.60;5.10;;;29.10;62.10;;;;;;5071194;28;20209;-59
2021/06/11 09:50:28;;;;;;;6.50;5.05;;;29.10;63.50;;;;;;5071573;28;20445;-59
2021/06/11 09:52:57;;;;;;;5.55;4.80;;;29.00;63.70;;;;;;5071210;28;20236;-60
2021/06/11 09:55:26;;;;;;;6.70;5.47;;;29.10;64.00;;;;;;5071100;28;20208;-59
2021/06/11 09:58:07;;;;;;;5.57;5.05;;;29.10;64.00;;;;;;5070933;28;20362;-59
2021/06/11 10:00:35;;;;;;;6.15;5.47;;;29.10;64.40;;;;;;5071148;28;20205;-59
2021/06/11 10:03:01;;;;;;;6.35;5.28;;;29.00;63.80;;;;;;5070966;28;20261;-60
2021/06/11 10:05:29;;;;;;;7.97;5.28;;;29.10;63.80;;;;;;5070732;28;20236;-60
2021/06/11 10:07:55;;;;;;;6.10;5.07;;;29.10;64.30;;;;;;5070689;28;20676;-60
2021/06/11 10:10:22;;;;;;;6.80;5.55;;;29.10;64.60;;;;;;5070900;28;20204;-60
2021/06/11 10:12:48;;;;;;;5.78;5.28;;;28.90;64.60;;;;;;5070515;28;20221;-60
2021/06/11 10:15:16;;;;;;;6.15;5.00;;;28.80;64.60;;;;;;5070691;28;20212;-60
2021/06/11 10:17:42;;;;;;;8.15;4.97;;;28.90;63.70;;;;;;5070719;28;20204;-59
2021/06/11 10:20:10;;;;;;;7.07;6.38;;;28.90;63.60;;;;;;5070915;28;20205;-60
2021/06/11 10:22:38;;;;;;;6.70;4.78;;;28.90;63.60;;;;;;5069746;28;20461;-60
2021/06/11 10:25:07;;;;;;;5.30;4.80;;;29.10;64.60;;;;;;5070260;28;20232;-60
2021/06/11 10:27:34;;;;;;;5.55;5.00;;;29.30;63.90;;;;;;5070748;28;20209;-60
2021/06/11 10:30:01;;;;;;;6.75;5.57;;;29.30;62.70;;;;;;5071636;28;20209;-60
2021/06/11 10:32:27;;;;;;;7.95;4.80;;;29.20;62.00;;;;;;5070752;28;20295;-60
2021/06/11 10:34:55;;;;;;;6.40;5.28;;;29.20;63.00;;;;;;5070817;28;20201;-60
2021/06/11 10:37:39;;;;;;;7.93;4.95;;;29.20;62.20;;;;;;5070821;28;20232;-60
2021/06/11 10:40:23;;;;;;;6.20;5.40;;;29.20;63.20;;;;;;5075067;28;20270;-60
2021/06/11 10:42:50;;;;;;;6.18;5.03;;;29.00;63.20;;;;;;5075066;28;20221;-60
2021/06/11 10:45:43;;;;;;;5.60;4.65;;;28.90;64.50;;;;;;5075348;28;20224;-60
2021/06/11 10:48:10;;;;;;;7.13;5.57;;;28.90;64.10;;;;;;5074731;28;20223;-66
2021/06/11 10:50:38;;;;;;;6.25;5.22;;;28.90;63.10;;;;;;5074600;28;20580;-61
2021/06/11 10:53:14;;;;;;;4.90;4.50;;;28.80;62.50;;;;;;5074373;28;20717;-60
2021/06/11 10:55:49;;;;;;;5.65;4.90;;;28.50;63.80;;;;;;5074223;28;20234;-61
2021/06/11 10:58:23;;;;;;;5.93;4.63;;;28.30;64.30;;;;;;5074154;28;20686;-61
2021/06/11 11:00:50;;;;;;;5.38;4.78;;;28.30;65.20;;;;;;5074714;28;20205;-61
2021/06/11 11:03:34;;;;;;;6.00;4.72;;;28.40;64.30;;;;;;5074464;28;20675;-61
2021/06/11 11:06:28;;;;;;;5.93;5.40;;;28.60;62.60;;;;;;5073980;28;20652;-62
2021/06/11 11:08:58;;;;;;;5.05;4.30;;;28.80;61.90;;;;;;5073997;28;20209;-61
2021/06/11 11:11:46;;;;;;;4.88;4.38;;;29.00;60.60;;;;;;5074487;28;20208;-61
2021/06/11 11:14:39;;;;;;;5.13;3.80;;;29.30;58.40;;;;;;5074191;28;20236;-61
2021/06/11 11:17:05;;;;;;;5.80;4.00;;;29.40;56.50;;;;;;5074030;28;20201;-61
2021/06/11 11:19:45;;;;;;;4.63;3.85;;;29.50;57.40;;;;;;5073539;28;20776;-61
2021/06/11 11:22:22;;;;;;;4.97;4.40;;;29.40;57.80;;;;;;5073670;28;20215;-61
2021/06/11 11:24:50;;;;;;;6.68;4.20;;;29.50;56.70;;;;;;5073295;28;20212;-61
2021/06/11 11:27:17;;;;;;;4.28;3.88;;;29.70;56.70;;;;;;5073384;28;20209;-61
2021/06/11 11:29:43;;;;;;;5.30;3.95;;;30.10;55.60;;;;;;5072977;28;20708;-61
2021/06/11 11:32:09;;;;;;;6.40;4.30;;;30.30;54.00;;;;;;5073700;28;20561;-61
2021/06/11 11:34:35;;;;;;;7.75;4.70;;;30.40;53.30;;;;;;5073752;28;20232;-62
2021/06/11 11:37:01;;;;;;;6.75;4.90;;;30.60;56.30;;;;;;5073798;28;20574;-61
2021/06/11 11:39:28;;;;;;;7.68;5.00;;;30.70;55.60;;;;;;5073315;28;20209;-62
2021/06/11 11:41:56;;;;;;;4.50;4.10;;;30.70;55.50;;;;;;5073324;28;20209;-62
2021/06/11 11:44:22;;;;;;;5.00;4.40;;;30.50;54.00;;;;;;5073027;28;20327;-61
2021/06/11 11:46:49;;;;;;;7.20;4.85;;;30.50;53.00;;;;;;5073554;28;20232;-60
2021/06/11 11:49:15;;;;;;;4.53;4.03;;;30.50;51.70;;;;;;5072620;28;20212;-60
2021/06/11 11:51:42;;;;;;;6.32;5.50;;;30.80;52.30;;;;;;5071157;28;20290;-60
2021/06/11 11:54:08;;;;;;;6.25;4.53;;;31.00;53.20;;;;;;5072711;28;20319;-62
2021/06/11 11:56:34;;;;;;;4.43;4.00;;;31.40;52.70;;;;;;5072880;28;20197;-64
2021/06/11 11:59:06;;;;;;;5.95;4.28;;;31.60;52.40;;;;;;5072729;28;20583;-61
2021/06/11 12:01:36;;;;;;;5.18;3.83;;;31.80;53.10;;;;;;5072981;28;20205;-58
2021/06/11 12:04:02;;;;;;;3.97;3.67;;;31.70;52.70;;;;;;5072792;28;20774;-58
2021/06/11 12:06:28;;;;;;;4.03;3.60;;;31.70;52.50;;;;;;5073097;28;20384;-58
2021/06/11 12:08:54;;;;;;;4.25;3.80;;;31.90;51.90;;;;;;5072826;28;20204;-58
2021/06/11 12:11:21;;;;;;;5.40;3.60;;;32.00;51.70;;;;;;5072754;28;20220;-58
2021/06/11 12:13:47;;;;;;;4.72;4.22;;;32.00;50.80;;;;;;5072835;28;20290;-58
2021/06/11 12:16:15;;;;;;;4.90;4.40;;;31.90;50.20;;;;;;5073071;28;20204;-58
2021/06/11 12:18:41;;;;;;;4.88;3.88;;;31.80;52.20;;;;;;5073128;28;20201;-58
2021/06/11 12:21:09;;;;;;;7.55;4.40;;;31.50;53.10;;;;;;5072630;28;20684;-58
2021/06/11 12:23:35;;;;;;;5.05;4.50;;;31.50;53.50;;;;;;5072414;28;20675;-58
2021/06/11 12:26:01;;;;;;;8.75;7.68;;;31.60;52.70;;;;;;5072422;28;20254;-58
2021/06/11 12:28:28;;;;;;;5.97;4.30;;;31.60;53.10;;;;;;5072420;28;20669;-59
2021/06/11 12:30:54;;;;;;;4.88;4.47;;;31.80;52.50;;;;;;5072441;28;20271;-59
2021/06/11 12:33:21;;;;;;;5.82;4.60;;;31.90;52.10;;;;;;5072839;28;20232;-58
2021/06/11 12:35:48;;;;;;;4.70;4.25;;;31.70;52.40;;;;;;5072544;28;20266;-59
2021/06/11 12:38:15;;;;;;;4.97;3.97;;;31.60;52.40;;;;;;5072705;28;20227;-59
2021/06/11 12:40:45;;;;;;;4.20;3.80;;;31.50;52.30;;;;;;5072398;28;20669;-59
2021/06/11 12:43:15;;;;;;;5.10;3.92;;;31.40;52.80;;;;;;5072465;28;20363;-60
2021/06/11 12:45:42;;;;;;;4.47;3.80;;;31.40;52.50;;;;;;5072390;28;20298;-59
2021/06/11 12:48:11;;;;;;;6.13;3.75;;;31.50;53.00;;;;;;5072173;28;20201;-59
2021/06/11 12:50:38;;;;;;;4.45;4.05;;;31.70;53.40;;;;;;5072276;28;20637;-58
2021/06/11 12:53:05;;;;;;;8.25;4.30;;;31.90;51.10;;;;;;5071875;28;20240;-58